createdAt,value
2023-03-02T00:01:48.014Z,-0.49
2023-03-02T00:04:20.983Z,-0.48
2023-03-02T00:06:49.084Z,-0.49
2023-03-02T00:09:16.015Z,-0.53
2023-03-02T00:11:43.321Z,-0.54
2023-03-02T00:14:09.869Z,-0.54
2023-03-02T00:16:36.517Z,-0.56
2023-03-02T00:19:03.302Z,-0.57
2023-03-02T00:21:29.873Z,-0.58
2023-03-02T00:23:56.402Z,-0.58
2023-03-02T00:26:22.974Z,-0.58
2023-03-02T00:28:50.065Z,-0.56
2023-03-02T00:31:16.902Z,-0.56
2023-03-02T00:33:43.783Z,-0.56
2023-03-02T00:36:17.970Z,-0.54
2023-03-02T00:38:44.794Z,-0.54
2023-03-02T00:41:12.732Z,-0.52
2023-03-02T00:43:39.608Z,-0.49
2023-03-02T00:46:15.129Z,-0.45
2023-03-02T00:48:41.806Z,-0.44
2023-03-02T00:51:09.496Z,-0.39
2023-03-02T00:53:36.872Z,-0.42
2023-03-02T00:56:04.931Z,-0.43
2023-03-02T00:58:31.827Z,-0.44
2023-03-02T01:00:58.909Z,-0.44
2023-03-02T01:03:25.799Z,-0.46
2023-03-02T01:05:55.435Z,-0.47
2023-03-02T01:08:25.215Z,-0.50
2023-03-02T01:10:54.318Z,-0.53
2023-03-02T01:13:21.232Z,-0.52
2023-03-02T01:15:47.880Z,-0.53
2023-03-02T01:18:14.849Z,-0.55
2023-03-02T01:20:41.424Z,-0.56
2023-03-02T01:23:08.160Z,-0.56
2023-03-02T01:25:34.707Z,-0.57
2023-03-02T01:28:01.125Z,-0.55
2023-03-02T01:30:27.614Z,-0.53
2023-03-02T01:32:54.290Z,-0.52
2023-03-02T01:35:20.838Z,-0.53
2023-03-02T01:37:47.437Z,-0.56
2023-03-02T01:40:14.496Z,-0.56
2023-03-02T01:42:47.662Z,-0.57
2023-03-02T01:45:44.848Z,-0.57
2023-03-02T01:48:13.829Z,-0.55
2023-03-02T01:50:40.550Z,-0.55
2023-03-02T01:53:07.861Z,-0.56
2023-03-02T01:55:38.947Z,-0.57
2023-03-02T01:58:06.654Z,-0.57
2023-03-02T02:00:37.395Z,-0.55
2023-03-02T02:03:09.138Z,-0.54
2023-03-02T02:05:43.854Z,-0.52
2023-03-02T02:08:10.631Z,-0.51
2023-03-02T02:10:38.415Z,-0.50
2023-03-02T02:13:08.964Z,-0.50
2023-03-02T02:15:35.546Z,-0.46
2023-03-02T02:18:02.113Z,-0.44
2023-03-02T02:20:39.697Z,-0.47
2023-03-02T02:23:26.449Z,-0.48
2023-03-02T02:25:55.951Z,-0.45
2023-03-02T02:28:30.249Z,-0.45
2023-03-02T02:31:41.539Z,-0.45
2023-03-02T02:34:22.567Z,-0.47
2023-03-02T02:36:51.780Z,-0.51
2023-03-02T02:39:25.624Z,-0.51
2023-03-02T02:41:56.626Z,-0.50
2023-03-02T02:44:23.150Z,-0.51
2023-03-02T02:46:49.637Z,-0.55
2023-03-02T02:49:35.259Z,-0.59
2023-03-02T02:52:03.933Z,-0.65
2023-03-02T02:54:31.942Z,-0.68
2023-03-02T02:57:01.536Z,-0.76
2023-03-02T02:59:39.892Z,-0.80
2023-03-02T03:02:06.963Z,-0.84
2023-03-02T03:04:33.555Z,-0.87
2023-03-02T03:07:02.479Z,-0.92
2023-03-02T03:09:29.419Z,-0.93
2023-03-02T03:12:01.701Z,-0.95
2023-03-02T03:14:36.595Z,-0.97
2023-03-02T03:17:03.214Z,-0.98
2023-03-02T03:19:32.770Z,-1.00
2023-03-02T03:22:01.378Z,-0.99
2023-03-02T03:24:30.382Z,-1.02
2023-03-02T03:26:57.491Z,-1.03
2023-03-02T03:29:26.556Z,-1.02
2023-03-02T03:31:55.449Z,-1.08
2023-03-02T03:34:22.562Z,-1.07
2023-03-02T03:36:49.061Z,-1.08
2023-03-02T03:39:16.844Z,-1.10
2023-03-02T03:41:44.412Z,-1.14
2023-03-02T03:44:11.925Z,-1.17
2023-03-02T03:46:38.985Z,-1.19
2023-03-02T03:49:05.965Z,-1.19
2023-03-02T03:51:35.521Z,-1.20
2023-03-02T03:54:08.124Z,-1.19
2023-03-02T03:56:41.398Z,-1.21
2023-03-02T03:59:10.229Z,-1.23
2023-03-02T04:01:45.615Z,-1.24
2023-03-02T04:04:22.412Z,-1.23
2023-03-02T04:06:49.438Z,-1.25
2023-03-02T04:09:18.108Z,-1.18
2023-03-02T04:11:46.942Z,-1.11
2023-03-02T04:14:14.081Z,-1.06
2023-03-02T04:16:41.147Z,-1.02
2023-03-02T04:19:11.063Z,-0.98
2023-03-02T04:21:45.150Z,-0.98
2023-03-02T04:24:12.668Z,-0.95
2023-03-02T04:26:40.832Z,-0.99
2023-03-02T04:29:07.739Z,-1.03
2023-03-02T04:31:34.411Z,-1.02
2023-03-02T04:34:04.193Z,-1.07
2023-03-02T04:36:33.180Z,-1.04
2023-03-02T04:38:59.763Z,-0.99
2023-03-02T04:41:26.370Z,-0.97
2023-03-02T04:43:52.867Z,-1.00
2023-03-02T04:46:22.925Z,-1.04
2023-03-02T04:48:49.633Z,-1.09
2023-03-02T04:51:31.014Z,-1.13
2023-03-02T04:54:01.646Z,-1.14
2023-03-02T04:56:29.852Z,-1.14
2023-03-02T04:58:56.628Z,-1.16
2023-03-02T05:01:24.697Z,-1.19
2023-03-02T05:03:51.629Z,-1.26
2023-03-02T05:06:18.384Z,-1.30
2023-03-02T05:08:45.461Z,-1.35
2023-03-02T05:11:22.375Z,-1.34
2023-03-02T05:13:50.964Z,-1.35
2023-03-02T05:16:18.050Z,-1.36
2023-03-02T05:18:44.665Z,-1.39
2023-03-02T05:21:11.803Z,-1.41
2023-03-02T05:23:38.403Z,-1.46
2023-03-02T05:26:05.086Z,-1.48
2023-03-02T05:28:31.735Z,-1.48
2023-03-02T05:30:58.275Z,-1.51
2023-03-02T05:33:24.910Z,-1.48
2023-03-02T05:35:51.502Z,-1.51
2023-03-02T05:38:18.202Z,-1.55
2023-03-02T05:40:45.348Z,-1.59
2023-03-02T05:43:16.540Z,-1.58
2023-03-02T05:45:43.175Z,-1.58
2023-03-02T05:48:12.177Z,-1.60
2023-03-02T05:50:38.850Z,-1.66
2023-03-02T05:53:05.473Z,-1.70
2023-03-02T05:55:37.228Z,-1.72
2023-03-02T05:58:09.211Z,-1.67
2023-03-02T06:00:36.109Z,-1.65
2023-03-02T06:03:02.810Z,-1.64
2023-03-02T06:05:29.390Z,-1.67
2023-03-02T06:07:56.204Z,-1.63
2023-03-02T06:10:22.951Z,-1.64
2023-03-02T06:12:49.429Z,-1.64
2023-03-02T06:15:15.964Z,-1.58
2023-03-02T06:17:42.800Z,-1.56
2023-03-02T06:20:11.258Z,-1.54
2023-03-02T06:22:45.156Z,-1.55
2023-03-02T06:25:18.013Z,-1.59
2023-03-02T06:27:45.345Z,-1.66
2023-03-02T06:30:15.081Z,-1.64
2023-03-02T06:32:42.474Z,-1.67
2023-03-02T06:35:10.708Z,-1.67
2023-03-02T06:37:37.720Z,-1.68
2023-03-02T06:40:10.272Z,-1.71
2023-03-02T06:42:38.800Z,-1.67
2023-03-02T06:45:06.423Z,-1.69
2023-03-02T06:47:33.480Z,-1.66
2023-03-02T06:50:00.514Z,-1.66
2023-03-02T06:52:29.790Z,-1.67
2023-03-02T06:54:56.673Z,-1.69
2023-03-02T06:57:23.494Z,-1.67
2023-03-02T06:59:50.004Z,-1.66
2023-03-02T07:02:16.554Z,-1.62
2023-03-02T07:04:43.192Z,-1.62
2023-03-02T07:07:09.789Z,-1.62
2023-03-02T07:09:36.356Z,-1.61
2023-03-02T07:12:02.851Z,-1.57
2023-03-02T07:14:29.359Z,-1.53
2023-03-02T07:16:57.484Z,-1.51
2023-03-02T07:19:24.147Z,-1.47
2023-03-02T07:21:50.745Z,-1.44
2023-03-02T07:24:17.438Z,-1.37
2023-03-02T07:26:43.972Z,-1.32
2023-03-02T07:29:10.476Z,-1.29
2023-03-02T07:31:37.014Z,-1.26
2023-03-02T07:34:03.576Z,-1.22
2023-03-02T07:36:30.237Z,-1.18
2023-03-02T07:38:57.616Z,-1.12
2023-03-02T07:41:24.211Z,-1.08
2023-03-02T07:43:50.737Z,-1.03
2023-03-02T07:46:17.316Z,-0.98
2023-03-02T07:48:44.189Z,-0.92
2023-03-02T07:51:10.824Z,-0.89
2023-03-02T07:53:37.715Z,-0.86
2023-03-02T07:56:09.561Z,-0.79
2023-03-02T07:58:36.849Z,-0.72
2023-03-02T08:01:04.418Z,-0.65
2023-03-02T08:03:30.969Z,-0.61
2023-03-02T08:05:57.445Z,-0.55
2023-03-02T08:08:24.305Z,-0.49
2023-03-02T08:10:50.883Z,-0.41
2023-03-02T08:13:17.377Z,-0.36
2023-03-02T08:15:44.003Z,-0.29
2023-03-02T08:18:10.523Z,-0.23
2023-03-02T08:20:37.534Z,-0.18
2023-03-02T08:23:04.049Z,-0.10
2023-03-02T08:25:30.597Z,-0.05
2023-03-02T08:27:57.175Z,0.03
2023-03-02T08:30:23.735Z,0.07
2023-03-02T08:32:50.293Z,0.13
2023-03-02T08:35:17.467Z,0.19
2023-03-02T08:37:44.011Z,0.26
2023-03-02T08:40:11.166Z,0.33
2023-03-02T08:42:37.673Z,0.36
2023-03-02T08:45:04.605Z,0.41
2023-03-02T08:47:32.504Z,0.47
2023-03-02T08:49:59.034Z,0.55
2023-03-02T08:52:25.701Z,0.59
2023-03-02T08:54:52.327Z,0.69
2023-03-02T08:57:20.398Z,0.79
2023-03-02T08:59:47.890Z,0.85
2023-03-02T09:02:14.394Z,0.92
2023-03-02T09:04:41.260Z,0.97
2023-03-02T09:07:07.846Z,1.02
2023-03-02T09:09:34.413Z,1.09
2023-03-02T09:12:00.955Z,1.17
2023-03-02T09:14:27.973Z,1.16
2023-03-02T09:16:54.745Z,1.20
2023-03-02T09:19:21.432Z,1.31
2023-03-02T09:21:48.127Z,1.39
2023-03-02T09:24:14.674Z,1.40
2023-03-02T09:26:41.302Z,1.44
2023-03-02T09:29:07.917Z,1.55
2023-03-02T09:31:35.730Z,1.57
2023-03-02T09:34:02.596Z,1.65
2023-03-02T09:36:31.218Z,1.65
2023-03-02T09:38:57.752Z,1.76
2023-03-02T09:41:47.987Z,1.86
2023-03-02T09:44:37.403Z,2.01
2023-03-02T09:47:09.864Z,2.05
2023-03-02T09:49:57.972Z,2.16
2023-03-02T09:52:38.414Z,2.24
2023-03-02T09:55:22.343Z,2.27
2023-03-02T09:57:49.299Z,2.45
2023-03-02T10:00:28.997Z,2.58
2023-03-02T10:03:11.432Z,2.70
2023-03-02T10:05:44.197Z,2.74
2023-03-02T10:08:24.620Z,2.88
2023-03-02T10:11:18.768Z,3.00
2023-03-02T10:13:56.502Z,3.14
2023-03-02T10:16:38.715Z,3.22
2023-03-02T10:19:26.718Z,3.35
2023-03-02T10:22:13.188Z,3.42
2023-03-02T10:25:16.674Z,3.52
2023-03-02T10:27:50.394Z,3.57
2023-03-02T10:30:25.551Z,3.74
2023-03-02T10:32:52.938Z,3.87
2023-03-02T10:35:28.166Z,3.95
2023-03-02T10:38:10.408Z,4.00
2023-03-02T10:40:48.466Z,4.10
2023-03-02T10:43:27.596Z,4.22
2023-03-02T10:46:00.433Z,4.32
2023-03-02T10:48:27.435Z,4.48
2023-03-02T10:50:56.442Z,4.57
2023-03-02T10:53:22.943Z,4.58
2023-03-02T10:55:52.393Z,4.66
2023-03-02T10:58:26.150Z,4.80
2023-03-02T11:01:01.070Z,4.78
2023-03-02T11:03:29.053Z,4.96
2023-03-02T11:05:56.725Z,5.21
2023-03-02T11:08:26.856Z,5.31
2023-03-02T11:10:53.843Z,5.39
2023-03-02T11:13:35.065Z,5.48
2023-03-02T11:16:05.183Z,5.53
2023-03-02T11:18:39.730Z,5.62
2023-03-02T11:21:22.367Z,5.66
2023-03-02T11:24:02.224Z,5.72
2023-03-02T11:26:34.086Z,5.85
2023-03-02T11:29:25.603Z,5.95
2023-03-02T11:32:01.737Z,5.97
2023-03-02T11:34:42.746Z,6.14
2023-03-02T11:37:24.459Z,6.18
2023-03-02T11:39:59.604Z,6.18
2023-03-02T11:42:26.117Z,6.37
2023-03-02T11:44:52.870Z,6.45
2023-03-02T11:47:21.212Z,6.47
2023-03-02T11:50:01.987Z,6.47
2023-03-02T11:52:32.910Z,6.56
2023-03-02T11:55:24.901Z,6.67
2023-03-02T12:00:28.981Z,6.81
2023-03-02T12:03:06.829Z,6.88
2023-03-02T12:05:36.959Z,6.96
2023-03-02T12:08:28.308Z,7.11
2023-03-02T12:11:18.849Z,7.07
2023-03-02T12:13:49.699Z,7.05
2023-03-02T12:16:22.418Z,7.05
2023-03-02T12:18:53.074Z,7.23
2023-03-02T12:21:24.185Z,7.35
2023-03-02T12:23:50.936Z,7.49
2023-03-02T12:26:20.257Z,7.56
2023-03-02T12:29:13.881Z,7.53
2023-03-02T12:31:43.584Z,7.64
2023-03-02T12:34:39.823Z,7.71
2023-03-02T12:37:14.430Z,7.86
2023-03-02T12:39:50.089Z,7.90
2023-03-02T12:42:35.508Z,7.93
2023-03-02T12:45:11.215Z,8.06
2023-03-02T12:47:41.242Z,8.11
2023-03-02T12:50:20.031Z,7.93
2023-03-02T12:53:01.014Z,8.05
2023-03-02T12:55:27.602Z,8.20
2023-03-02T12:57:56.639Z,8.27
2023-03-02T13:00:26.973Z,8.28
2023-03-02T13:02:56.638Z,8.32
2023-03-02T13:05:29.600Z,8.43
2023-03-02T13:08:04.336Z,8.39
2023-03-02T13:10:43.788Z,8.48
2023-03-02T13:13:21.499Z,8.63
2023-03-02T13:15:55.234Z,8.70
2023-03-02T13:18:24.023Z,8.77
2023-03-02T13:20:51.912Z,8.74
2023-03-02T13:23:19.771Z,8.75
2023-03-02T13:25:56.665Z,8.73
2023-03-02T13:28:35.145Z,8.73
2023-03-02T13:31:16.592Z,8.73
2023-03-02T13:33:45.395Z,8.70
2023-03-02T13:36:23.593Z,8.64
2023-03-02T13:38:59.275Z,8.60
2023-03-02T13:41:31.658Z,8.66
2023-03-02T13:43:59.481Z,8.52
2023-03-02T13:46:35.665Z,8.47
2023-03-02T13:49:10.192Z,8.50
2023-03-02T13:51:46.270Z,8.51
2023-03-02T13:54:18.858Z,8.48
2023-03-02T13:56:45.365Z,8.53
2023-03-02T13:59:18.125Z,8.50
2023-03-02T14:01:44.924Z,8.55
2023-03-02T14:04:13.304Z,8.56
2023-03-02T14:06:39.961Z,8.49
2023-03-02T14:09:06.553Z,8.57
2023-03-02T14:11:37.504Z,8.56
2023-03-02T14:14:06.314Z,8.54
2023-03-02T14:16:36.089Z,8.51
2023-03-02T14:19:03.655Z,8.52
2023-03-02T14:21:30.421Z,8.50
2023-03-02T14:23:58.914Z,8.49
2023-03-02T14:26:31.592Z,8.46
2023-03-02T14:29:05.471Z,8.44
2023-03-02T14:31:32.961Z,8.45
2023-03-02T14:33:59.567Z,8.46
2023-03-02T14:36:33.141Z,8.42
2023-03-02T14:39:03.751Z,8.40
2023-03-02T14:41:31.498Z,8.37
2023-03-02T14:43:58.193Z,8.34
2023-03-02T14:46:24.718Z,8.32
2023-03-02T14:48:51.320Z,8.35
2023-03-02T14:51:25.774Z,8.37
2023-03-02T14:53:56.185Z,8.37
2023-03-02T14:56:23.585Z,8.38
2023-03-02T14:58:52.130Z,8.34
2023-03-02T15:01:20.122Z,8.32
2023-03-02T15:03:46.782Z,8.37
2023-03-02T15:06:26.184Z,8.42
2023-03-02T15:08:54.087Z,8.42
2023-03-02T15:11:20.578Z,8.37
2023-03-02T15:13:47.277Z,8.33
2023-03-02T15:16:14.592Z,8.32
2023-03-02T15:18:41.347Z,8.27
2023-03-02T15:21:14.622Z,8.27
2023-03-02T15:23:41.192Z,8.21
2023-03-02T15:26:07.837Z,8.18
2023-03-02T15:28:34.487Z,8.16
2023-03-02T15:31:12.519Z,8.11
2023-03-02T15:33:40.084Z,8.03
2023-03-02T15:36:07.304Z,7.95
2023-03-02T15:38:35.823Z,7.88
2023-03-02T15:41:13.477Z,7.84
2023-03-02T15:43:40.091Z,7.82
2023-03-02T15:46:09.421Z,7.81
2023-03-02T15:48:36.903Z,7.77
2023-03-02T15:51:06.284Z,7.75
2023-03-02T15:53:37.440Z,7.73
2023-03-02T15:56:11.151Z,7.69
2023-03-02T15:58:37.865Z,7.62
2023-03-02T16:01:08.607Z,7.56
2023-03-02T16:03:35.221Z,7.50
2023-03-02T16:06:01.999Z,7.44
2023-03-02T16:08:29.061Z,7.40
2023-03-02T16:11:03.974Z,7.36
2023-03-02T16:13:30.790Z,7.31
2023-03-02T16:16:00.226Z,7.23
2023-03-02T16:18:26.796Z,7.15
2023-03-02T16:20:53.242Z,7.07
2023-03-02T16:23:19.929Z,7.01
2023-03-02T16:25:50.014Z,6.94
2023-03-02T16:28:18.301Z,6.87
2023-03-02T16:30:46.167Z,6.80
2023-03-02T16:33:16.287Z,6.73
2023-03-02T16:35:43.165Z,6.70
2023-03-02T16:38:09.895Z,6.63
2023-03-02T16:40:38.715Z,6.53
2023-03-02T16:43:08.840Z,6.48
2023-03-02T16:45:35.687Z,6.42
2023-03-02T16:48:03.812Z,6.34
2023-03-02T16:50:30.877Z,6.24
2023-03-02T16:52:59.124Z,6.15
2023-03-02T16:55:25.966Z,6.10
2023-03-02T16:57:52.766Z,6.04
2023-03-02T17:00:21.460Z,6.00
2023-03-02T17:02:48.940Z,5.95
2023-03-02T17:05:19.120Z,5.89
2023-03-02T17:07:46.575Z,5.83
2023-03-02T17:10:21.456Z,5.78
2023-03-02T17:12:48.046Z,5.70
2023-03-02T17:15:14.947Z,5.66
2023-03-02T17:17:41.503Z,5.58
2023-03-02T17:20:10.166Z,5.50
2023-03-02T17:22:36.761Z,5.42
2023-03-02T17:25:04.810Z,5.33
2023-03-02T17:27:31.700Z,5.26
2023-03-02T17:29:58.246Z,5.20
2023-03-02T17:32:24.862Z,5.15
2023-03-02T17:34:51.397Z,5.09
2023-03-02T17:37:18.210Z,5.04
2023-03-02T17:39:44.801Z,4.96
2023-03-02T17:42:11.567Z,4.92
2023-03-02T17:44:40.139Z,4.89
2023-03-02T17:47:08.392Z,4.81
2023-03-02T17:49:42.686Z,4.79
2023-03-02T17:52:09.342Z,4.76
2023-03-02T17:54:36.445Z,4.72
2023-03-02T17:57:04.170Z,4.65
2023-03-02T17:59:30.821Z,4.59
2023-03-02T18:01:57.391Z,4.53
2023-03-02T18:04:24.029Z,4.51
2023-03-02T18:06:52.441Z,4.49
2023-03-02T18:09:20.652Z,4.48
2023-03-02T18:11:47.585Z,4.44
2023-03-02T18:14:16.918Z,4.41
2023-03-02T18:16:43.590Z,4.40
2023-03-02T18:19:10.243Z,4.36
2023-03-02T18:21:38.511Z,4.33
2023-03-02T18:24:05.355Z,4.31
2023-03-02T18:26:32.036Z,4.28
2023-03-02T18:28:58.635Z,4.25
2023-03-02T18:31:25.467Z,4.22
2023-03-02T18:33:52.195Z,4.18
2023-03-02T18:36:18.948Z,4.15
2023-03-02T18:38:45.749Z,4.11
2023-03-02T18:41:13.722Z,4.10
2023-03-02T18:43:42.220Z,4.05
2023-03-02T18:46:26.404Z,4.04
2023-03-02T18:48:54.419Z,4.03
2023-03-02T18:51:23.675Z,4.02
2023-03-02T18:53:51.192Z,3.98
2023-03-02T18:56:18.074Z,3.97
2023-03-02T18:58:45.217Z,3.92
2023-03-02T19:01:12.260Z,3.92
2023-03-02T19:03:41.819Z,3.88
2023-03-02T19:06:08.853Z,3.86
2023-03-02T19:08:35.846Z,3.82
2023-03-02T19:11:04.854Z,3.75
2023-03-02T19:13:31.616Z,3.71
2023-03-02T19:15:58.671Z,3.66
2023-03-02T19:18:25.541Z,3.60
2023-03-02T19:20:54.397Z,3.57
2023-03-02T19:23:21.486Z,3.52
2023-03-02T19:25:48.281Z,3.51
2023-03-02T19:28:14.966Z,3.48
2023-03-02T19:30:41.862Z,3.42
2023-03-02T19:33:09.815Z,3.38
2023-03-02T19:35:37.813Z,3.36
2023-03-02T19:38:05.844Z,3.34
2023-03-02T19:40:32.616Z,3.27
2023-03-02T19:42:59.151Z,3.22
2023-03-02T19:45:29.899Z,3.13
2023-03-02T19:47:57.938Z,3.11
2023-03-02T19:50:25.882Z,3.10
2023-03-02T19:52:54.928Z,3.09
2023-03-02T19:55:22.434Z,3.06
2023-03-02T19:57:51.489Z,3.01
2023-03-02T20:00:19.392Z,2.99
2023-03-02T20:02:47.300Z,2.96
2023-03-02T20:05:13.915Z,2.93
2023-03-02T20:07:41.844Z,2.90
2023-03-02T20:10:09.929Z,2.86
2023-03-02T20:12:37.036Z,2.77
2023-03-02T20:15:05.630Z,2.74
2023-03-02T20:17:32.221Z,2.75
2023-03-02T20:20:01.019Z,2.74
2023-03-02T20:22:27.564Z,2.73
2023-03-02T20:24:54.592Z,2.72
2023-03-02T20:27:21.262Z,2.66
2023-03-02T20:29:48.370Z,2.61
2023-03-02T20:32:15.115Z,2.59
2023-03-02T20:34:43.105Z,2.55
2023-03-02T20:37:12.086Z,2.48
2023-03-02T20:39:40.627Z,2.42
2023-03-02T20:42:07.952Z,2.42
2023-03-02T20:44:35.398Z,2.40
2023-03-02T20:47:08.185Z,2.40
2023-03-02T20:49:36.649Z,2.41
2023-03-02T20:52:04.759Z,2.38
2023-03-02T20:54:35.597Z,2.35
2023-03-02T20:57:02.183Z,2.32
2023-03-02T20:59:28.852Z,2.31
2023-03-02T21:01:55.544Z,2.26
2023-03-02T21:04:22.422Z,2.25
2023-03-02T21:06:49.694Z,2.22
2023-03-02T21:09:17.951Z,2.21
2023-03-02T21:11:45.761Z,2.17
2023-03-02T21:14:14.255Z,2.13
2023-03-02T21:16:43.512Z,2.11
2023-03-02T21:19:16.205Z,2.06
2023-03-02T21:21:43.046Z,2.04
2023-03-02T21:24:18.545Z,2.01
2023-03-02T21:26:46.820Z,1.98
2023-03-02T21:29:17.946Z,1.94
2023-03-02T21:31:46.165Z,1.92
2023-03-02T21:34:13.561Z,1.87
2023-03-02T21:36:40.617Z,1.88
2023-03-02T21:39:08.592Z,1.86
2023-03-02T21:41:36.311Z,1.84
2023-03-02T21:44:05.776Z,1.81
2023-03-02T21:46:35.793Z,1.77
2023-03-02T21:49:02.854Z,1.77
2023-03-02T21:51:32.482Z,1.76
2023-03-02T21:53:59.197Z,1.71
2023-03-02T21:56:26.646Z,1.68
2023-03-02T21:58:56.197Z,1.66
2023-03-02T22:01:24.609Z,1.64
2023-03-02T22:03:51.474Z,1.61
2023-03-02T22:06:20.830Z,1.60
2023-03-02T22:08:47.661Z,1.55
2023-03-02T22:11:26.100Z,1.53
2023-03-02T22:13:56.438Z,1.53
2023-03-02T22:16:25.533Z,1.49
2023-03-02T22:18:57.113Z,1.49
2023-03-02T22:21:26.666Z,1.47
2023-03-02T22:24:13.744Z,1.43
2023-03-02T22:26:46.613Z,1.40
2023-03-02T22:29:26.083Z,1.38
2023-03-02T22:31:55.278Z,1.35
2023-03-02T22:34:28.666Z,1.37
2023-03-02T22:37:17.571Z,1.38
2023-03-02T22:39:44.995Z,1.36
2023-03-02T22:42:17.833Z,1.35
2023-03-02T22:44:50.457Z,1.32
2023-03-02T22:47:19.875Z,1.29
2023-03-02T22:49:47.373Z,1.25
2023-03-02T22:52:17.693Z,1.20
2023-03-02T22:54:45.647Z,1.17
2023-03-02T22:57:35.242Z,1.18
2023-03-02T23:00:14.092Z,1.16
2023-03-02T23:02:43.937Z,1.08
2023-03-02T23:05:27.467Z,1.03
2023-03-02T23:08:12.339Z,1.02
2023-03-02T23:10:40.685Z,0.96
2023-03-02T23:13:09.794Z,0.96
2023-03-02T23:15:36.766Z,0.94
2023-03-02T23:18:15.875Z,0.96
2023-03-02T23:20:42.465Z,0.96
2023-03-02T23:23:09.164Z,0.90
2023-03-02T23:25:35.669Z,0.86
2023-03-02T23:28:02.228Z,0.87
2023-03-02T23:30:28.958Z,0.86
2023-03-02T23:32:55.494Z,0.84
2023-03-02T23:35:22.114Z,0.80
2023-03-02T23:37:48.798Z,0.79
2023-03-02T23:40:15.641Z,0.78
2023-03-02T23:42:42.267Z,0.79
2023-03-02T23:45:09.479Z,0.79
2023-03-02T23:47:35.951Z,0.74
2023-03-02T23:50:02.881Z,0.72
2023-03-02T23:52:29.907Z,0.63
2023-03-02T23:54:56.459Z,0.56
2023-03-02T23:57:23.077Z,0.53
2023-03-02T23:59:49.562Z,0.48
